Search for airport 
image banner adimage banner adimage banner ad
image banner ad

P45 - Mount Pleasant/Scottdale

Located in Mount Pleasant, United States

ICAO - P45, IATA -

Data provided by Airmate  

General information

Coordinates: N40°6'27" W79°32'35"
Elevation is 1160 feet MSL.
Magnetic variation is -08° East
View others Airports in Pennsylvania

Operational data

Special qualification required
Current time UTC:
Current local time:
Weather at : KLBE - Arnold Palmer Rgnl ( 22 km )
METAR: KLBE 291547Z 21012G18KT 10SM SCT070 25/21 A2996
TAF: KLBE 291126Z 2912/3012 00000KT P6SM BKN120 FM291600 24010G18KT P6SM -SHRA OVC035 TEMPO 2917/2919 3SM TSRA OVC025CB FM292000 24010G20KT P6SM VCTS BKN040CB FM300100 28010KT P6SM BKN040 FM300600 27005KT P6SM BKN020
View NOTAMs / SUP AIP / TFR affecting this airport [VIEW]
Communications frequencies: [VIEW]

Runways:

RWY identifierQFULength (ft)Width (ft)SurfaceLDA (ft)
0653°2158135GRASS
24233°2158135GRASS
14130°1641175GRASS
32310°1641175GRASS

Airport contact information

Address: Mount Pleasant United States

Other aviation service providers

Flight schools

Mt. Pleasant Airport Llc

Mt. Pleasant Airport Llc
n9ug@hotmail.com+1(724)220-5556

Satellite view of P45